Time;durP1;ratioP1;P1;durP2;ratioP2;P2;SDS_P1;SDS_P2;PMS_P1;PMS_P2;Temp;Humidity;BMP_temperature;BMP_pressure;BME280_temperature;BME280_humidity;BME280_pressure;Samples;Min_cycle;Max_cycle;Signal;HPM_P1;HPM_P2
2021/01/04 15:18:19;;;;;;;2.70;2.60;;;;;;;2.06;100.00;98810.19;3950746;71;396140;-76
2021/01/04 15:23:41;;;;;;;1.60;1.50;;;;;;;2.06;100.00;98803.41;3877764;75;392188;-82
2021/01/04 15:29:02;;;;;;;2.03;1.73;;;;;;;2.05;100.00;98795.85;3969287;73;396182;-82
2021/01/04 15:34:25;;;;;;;2.97;2.77;;;;;;;2.04;100.00;98801.06;3999918;73;396387;-83
2021/01/04 15:39:47;;;;;;;2.10;2.00;;;;;;;2.05;100.00;98796.41;3999797;73;396071;-83
2021/01/04 15:45:09;;;;;;;5.60;4.50;;;;;;;2.01;100.00;98793.61;3971455;73;396131;-83
2021/01/04 15:50:31;;;;;;;3.23;2.93;;;;;;;1.97;100.00;98790.59;3925133;72;396124;-76
2021/01/04 15:55:54;;;;;;;3.53;3.13;;;;;;;2.01;100.00;98792.25;3924092;75;396164;-76
2021/01/04 16:01:15;;;;;;;7.80;3.13;;;;;;;1.98;100.00;98801.66;3915387;74;396109;-76
2021/01/04 16:06:36;;;;;;;1.43;1.20;;;;;;;1.94;100.00;98794.02;3870837;75;387860;-77
2021/01/04 16:12:01;;;;;;;5.90;1.80;;;;;;;1.95;100.00;98793.66;3911750;75;396337;-77
2021/01/04 16:17:23;;;;;;;2.37;2.27;;;;;;;1.97;100.00;98794.10;3905408;75;392193;-77
2021/01/04 16:22:44;;;;;;;27.30;4.17;;;;;;;1.95;100.00;98798.28;3845987;76;393250;-77
2021/01/04 16:28:06;;;;;;;2.17;2.00;;;;;;;1.95;100.00;98788.78;3845829;76;396431;-77
2021/01/04 16:33:37;;;;;;;1.00;0.90;;;;;;;1.96;100.00;98780.87;3852794;75;392339;-79
2021/01/04 16:38:58;;;;;;;2.70;1.57;;;;;;;1.89;100.00;98786.93;3912804;75;389867;-78
2021/01/04 16:44:19;;;;;;;2.70;1.80;;;;;;;1.88;100.00;98792.68;3817528;75;394001;-80
2021/01/04 16:49:42;;;;;;;2.30;2.13;;;;;;;1.83;100.00;98790.24;3776000;76;396103;-77
2021/01/04 16:55:20;;;;;;;2.00;1.77;;;;;;;1.79;100.00;98796.13;3707582;78;394149;-77
2021/01/04 17:00:28;;;;;;;2.30;2.10;;;;;;;1.78;100.00;98798.06;3752556;77;383565;-79
2021/01/04 17:06:00;;;;;;;1.67;1.17;;;;;;;1.76;100.00;98796.84;3834272;76;396173;-79
2021/01/04 17:11:32;;;;;;;1.53;0.60;;;;;;;1.73;100.00;98793.46;3831983;76;389826;-79
2021/01/04 17:16:56;;;;;;;2.20;1.57;;;;;;;1.76;100.00;98792.20;3836863;74;383587;-78
2021/01/04 17:22:18;;;;;;;8.30;1.77;;;;;;;1.84;100.00;98801.31;3973111;74;395002;-78
2021/01/04 17:27:41;;;;;;;2.73;2.53;;;;;;;1.81;100.00;98797.93;3972691;74;393957;-79
2021/01/04 17:33:02;;;;;;;2.20;2.10;;;;;;;1.74;100.00;98799.11;3972488;73;396154;-78
2021/01/04 17:38:23;;;;;;;3.60;3.13;;;;;;;1.73;100.00;98801.05;3971093;74;396087;-77
2021/01/04 17:43:45;;;;;;;3.00;1.73;;;;;;;1.77;100.00;98802.48;3970553;74;394033;-76
2021/01/04 17:49:08;;;;;;;2.30;1.97;;;;;;;1.77;100.00;98806.55;3922540;74;396078;-75
2021/01/04 17:54:29;;;;;;;2.03;1.63;;;;;;;1.72;100.00;98802.17;3911244;75;396022;-74
2021/01/04 17:59:50;;;;;;;1.50;1.23;;;;;;;1.71;100.00;98804.66;3917414;75;391939;-75
2021/01/04 18:05:12;;;;;;;9.63;2.73;;;;;;;1.74;100.00;98793.69;3914397;75;392177;-74
2021/01/04 18:10:33;;;;;;;1.33;1.00;;;;;;;1.74;100.00;98793.69;3845506;75;385697;-75
2021/01/04 18:15:55;;;;;;;3.13;2.30;;;;;;;1.68;100.00;98792.38;3873192;75;396338;-75
2021/01/04 18:21:22;;;;;;;3.57;2.83;;;;;;;1.65;100.00;98791.16;3777726;76;389834;-75
2021/01/04 18:26:45;;;;;;;2.60;2.17;;;;;;;1.64;100.00;98798.25;3771299;77;390061;-75
2021/01/04 18:32:06;;;;;;;5.43;2.80;;;;;;;1.57;100.00;98804.27;3757501;76;393947;-74
2021/01/04 18:37:27;;;;;;;2.93;2.30;;;;;;;1.59;100.00;98803.36;3716862;77;396060;-74
2021/01/04 18:42:48;;;;;;;1.43;1.33;;;;;;;1.62;100.00;98801.88;3719818;77;392018;-75
2021/01/04 18:48:11;;;;;;;2.20;2.10;;;;;;;1.65;100.00;98798.48;3715469;77;395053;-75
2021/01/04 18:53:34;;;;;;;3.97;1.73;;;;;;;1.62;100.00;98801.88;3780195;77;395252;-75
2021/01/04 18:58:55;;;;;;;6.60;0.80;;;;;;;1.56;100.00;98797.85;3756757;75;383594;-75
2021/01/04 19:04:16;;;;;;;1.90;1.80;;;;;;;1.57;100.00;98786.45;3716079;77;385961;-74
2021/01/04 19:09:40;;;;;;;1.70;1.13;;;;;;;1.55;100.00;98790.84;3706533;78;391916;-74
2021/01/04 19:15:02;;;;;;;3.43;1.70;;;;;;;1.51;100.00;98781.86;3704147;77;393995;-74
2021/01/04 19:20:23;;;;;;;2.03;1.50;;;;;;;1.50;100.00;98784.34;3718934;77;396174;-74
2021/01/04 19:25:44;;;;;;;5.10;2.77;;;;;;;1.50;100.00;98787.05;3769131;75;393997;-74
2021/01/04 19:31:06;;;;;;;8.40;2.30;;;;;;;1.49;100.00;98787.41;3752184;77;395111;-75
2021/01/04 19:36:27;;;;;;;0.80;0.53;;;;;;;1.46;100.00;98790.80;3746056;77;383585;-74
2021/01/04 19:41:49;;;;;;;5.73;2.50;;;;;;;1.48;100.00;98792.02;3746292;78;396302;-74
2021/01/04 19:47:12;;;;;;;5.83;1.33;;;;;;;1.40;100.00;98800.33;3749750;78;393969;-75
2021/01/04 19:52:33;;;;;;;5.23;3.63;;;;;;;1.44;100.00;98792.52;3750435;76;396176;-74
2021/01/04 19:57:55;;;;;;;3.33;1.53;;;;;;;1.42;100.00;98793.42;3725186;76;396358;-73
2021/01/04 20:03:16;;;;;;;4.70;2.10;;;;;;;1.57;100.00;98791.88;3683653;79;396167;-74
2021/01/04 20:08:37;;;;;;;5.50;2.10;;;;;;;1.50;100.00;98807.38;3687934;77;395048;-74
2021/01/04 20:14:00;;;;;;;3.27;0.83;;;;;;;1.49;100.00;98796.31;3685301;79;383792;-74
2021/01/04 20:19:22;;;;;;;2.40;2.20;;;;;;;1.43;100.00;98790.93;3693065;79;396125;-74
2021/01/04 20:24:43;;;;;;;1.90;1.10;;;;;;;1.46;100.00;98784.02;3725215;78;386698;-74
2021/01/04 20:30:07;;;;;;;1.77;1.67;;;;;;;1.45;100.00;98782.45;3748000;78;383577;-74
2021/01/04 20:35:28;;;;;;;1.40;1.00;;;;;;;1.37;100.00;98786.91;3746370;78;393997;-74
2021/01/04 20:40:49;;;;;;;2.70;2.37;;;;;;;1.33;100.00;98775.75;3746238;78;396073;-74
2021/01/04 20:46:11;;;;;;;2.00;1.17;;;;;;;1.39;100.00;98780.55;3746584;78;394006;-73
2021/01/04 20:51:32;;;;;;;3.93;2.80;;;;;;;1.31;100.00;98784.78;3774781;76;396105;-73
2021/01/04 20:56:54;;;;;;;7.03;2.73;;;;;;;1.26;100.00;98791.78;3756537;77;385661;-74
2021/01/04 21:02:14;;;;;;;1.50;1.03;;;;;;;1.28;100.00;98788.17;3743459;76;383581;-74
2021/01/04 21:07:37;;;;;;;0.90;0.70;;;;;;;1.34;100.00;98775.94;3744127;76;391863;-74
2021/01/04 21:12:58;;;;;;;1.73;1.57;;;;;;;1.31;100.00;98780.72;3743427;76;383561;-74
2021/01/04 21:18:20;;;;;;;2.40;2.27;;;;;;;1.30;100.00;98779.91;3742851;77;396069;-74
2021/01/04 21:23:42;;;;;;;1.63;1.53;;;;;;;1.28;100.00;98775.98;3759375;76;389828;-74
2021/01/04 21:29:06;;;;;;;1.80;1.30;;;;;;;1.22;100.00;98774.66;3728378;78;396078;-74
2021/01/04 21:34:27;;;;;;;0.90;0.80;;;;;;;1.23;100.00;98777.02;3749351;77;385704;-74
2021/01/04 21:39:48;;;;;;;0.97;0.87;;;;;;;1.26;100.00;98774.98;3753011;76;387822;-74
2021/01/04 21:45:11;;;;;;;2.60;2.23;;;;;;;1.31;100.00;98774.72;3746920;77;392177;-74
2021/01/04 21:50:33;;;;;;;1.67;1.57;;;;;;;1.27;100.00;98777.91;3744536;77;394252;-74
2021/01/04 21:55:54;;;;;;;3.00;1.47;;;;;;;1.28;100.00;98778.69;3731099;77;396422;-75
2021/01/04 22:01:16;;;;;;;6.33;1.07;;;;;;;1.27;100.00;98777.91;3724194;75;393012;-73
2021/01/04 22:06:37;;;;;;;1.50;1.33;;;;;;;1.29;100.00;98778.36;3687216;78;395040;-74
2021/01/04 22:11:58;;;;;;;2.63;1.93;;;;;;;1.28;100.00;98765.95;3684859;77;394036;-74
2021/01/04 22:17:19;;;;;;;2.60;2.33;;;;;;;1.27;100.00;98764.37;3684202;79;396169;-73
2021/01/04 22:22:41;;;;;;;1.40;0.73;;;;;;;1.25;100.00;98763.14;3691930;78;387784;-74
2021/01/04 22:28:02;;;;;;;1.57;1.47;;;;;;;1.25;100.00;98764.50;3749177;78;391900;-73
2021/01/04 22:33:24;;;;;;;2.20;2.10;;;;;;;1.28;100.00;98758.37;3745978;76;396124;-74
2021/01/04 22:38:46;;;;;;;1.67;1.33;;;;;;;1.27;100.00;98761.66;3746297;76;394988;-74
2021/01/04 22:44:08;;;;;;;1.37;1.27;;;;;;;1.23;100.00;98758.05;3746384;78;396337;-74
2021/01/04 22:49:29;;;;;;;1.90;1.03;;;;;;;1.21;100.00;98760.31;3748622;78;383825;-74
2021/01/04 22:54:50;;;;;;;1.20;1.10;;;;;;;1.27;100.00;98746.76;3747342;78;383806;-74
2021/01/04 23:00:14;;;;;;;4.30;1.00;;;;;;;1.29;100.00;98744.50;3696660;78;393030;-74
2021/01/04 23:05:35;;;;;;;1.07;0.97;;;;;;;1.35;100.00;98733.62;3705571;78;383866;-73
2021/01/04 23:10:56;;;;;;;0.80;0.60;;;;;;;1.34;100.00;98723.11;3716217;77;383606;-73
2021/01/04 23:16:17;;;;;;;0.80;0.60;;;;;;;1.35;100.00;98721.42;3720285;77;383586;-74
2021/01/04 23:21:38;;;;;;;5.27;2.10;;;;;;;1.28;100.00;98721.24;3721600;76;391936;-73
2021/01/04 23:27:00;;;;;;;1.10;0.90;;;;;;;1.30;100.00;98724.95;3704835;77;391928;-73
2021/01/04 23:32:22;;;;;;;1.87;1.10;;;;;;;1.29;100.00;98726.89;3679292;77;388042;-73
2021/01/04 23:37:44;;;;;;;0.90;0.60;;;;;;;1.31;100.00;98715.11;3678242;79;387836;-74
2021/01/04 23:43:05;;;;;;;3.70;2.20;;;;;;;1.37;100.00;98722.42;3677312;77;383594;-73
2021/01/04 23:48:28;;;;;;;1.63;1.53;;;;;;;1.25;100.00;98713.80;3677083;79;388081;-73
2021/01/04 23:53:49;;;;;;;1.00;0.83;;;;;;;1.26;100.00;98718.09;3677461;80;391870;-73
2021/01/04 23:59:10;;;;;;;1.53;1.23;;;;;;;1.30;100.00;98713.53;3677708;79;391932;-73
